createdAt,value
2022-12-28T00:03:15.149Z,5.00
2022-12-28T00:07:20.720Z,5.00
2022-12-28T00:11:30.931Z,5.00
2022-12-28T00:15:38.157Z,5.00
2022-12-28T00:19:43.718Z,5.10
2022-12-28T00:23:57.503Z,5.10
2022-12-28T00:28:04.116Z,5.20
2022-12-28T00:32:09.766Z,5.20
2022-12-28T00:36:16.206Z,5.20
2022-12-28T00:40:24.189Z,5.30
2022-12-28T00:44:30.104Z,5.30
2022-12-28T00:48:35.629Z,5.30
2022-12-28T00:52:41.203Z,5.30
2022-12-28T00:56:46.866Z,5.30
2022-12-28T01:00:52.429Z,5.40
2022-12-28T01:04:57.953Z,5.40
2022-12-28T01:09:03.552Z,5.40
2022-12-28T01:13:09.056Z,5.50
2022-12-28T01:17:14.636Z,5.50
2022-12-28T01:21:24.055Z,5.50
2022-12-28T01:25:29.530Z,5.50
2022-12-28T01:29:35.074Z,5.60
2022-12-28T01:33:41.183Z,5.60
2022-12-28T01:37:46.740Z,5.60
2022-12-28T01:41:52.299Z,5.60
2022-12-28T01:45:57.813Z,5.60
2022-12-28T01:50:10.135Z,5.70
2022-12-28T01:54:16.181Z,5.70
2022-12-28T01:58:27.937Z,5.70
2022-12-28T02:02:34.127Z,5.70
2022-12-28T02:06:39.968Z,5.70
2022-12-28T02:10:47.192Z,5.70
2022-12-28T02:14:53.105Z,5.80
2022-12-28T02:18:58.821Z,5.80
2022-12-28T02:23:29.456Z,5.80
2022-12-28T02:28:00.953Z,5.80
2022-12-28T02:32:33.788Z,5.90
2022-12-28T02:36:50.652Z,5.90
2022-12-28T02:41:09.351Z,5.90
2022-12-28T02:46:07.563Z,6.00
2022-12-28T02:50:16.313Z,6.00
2022-12-28T02:55:37.150Z,6.00
2022-12-28T03:00:00.896Z,6.00
2022-12-28T03:04:15.107Z,6.00
2022-12-28T03:08:53.740Z,6.00
2022-12-28T03:13:05.658Z,6.00
2022-12-28T03:17:30.469Z,6.00
2022-12-28T03:21:56.503Z,5.90
2022-12-28T03:26:23.983Z,5.90
2022-12-28T03:30:49.857Z,5.90
2022-12-28T03:34:55.390Z,5.90
2022-12-28T03:39:18.664Z,5.90
2022-12-28T03:43:43.661Z,5.90
2022-12-28T03:47:52.220Z,5.90
2022-12-28T03:51:58.755Z,5.90
2022-12-28T03:56:18.220Z,5.80
2022-12-28T04:00:23.634Z,5.80
2022-12-28T04:04:29.081Z,5.80
2022-12-28T04:08:35.208Z,5.80
2022-12-28T04:12:40.714Z,5.80
2022-12-28T04:16:46.177Z,5.70
2022-12-28T04:20:51.865Z,5.70
2022-12-28T04:24:57.426Z,5.70
2022-12-28T04:29:04.200Z,5.70
2022-12-28T04:33:09.734Z,5.70
2022-12-28T04:37:15.192Z,5.70
2022-12-28T04:41:21.295Z,5.60
2022-12-28T04:45:26.934Z,5.60
2022-12-28T04:49:32.412Z,5.60
2022-12-28T04:53:39.964Z,5.60
2022-12-28T04:57:46.455Z,5.60
2022-12-28T05:01:52.027Z,5.60
2022-12-28T05:06:13.957Z,5.60
2022-12-28T05:10:19.506Z,5.60
2022-12-28T05:14:24.960Z,5.60
2022-12-28T05:18:30.620Z,5.60
2022-12-28T05:22:40.653Z,5.60
2022-12-28T05:26:46.551Z,5.60
2022-12-28T05:30:52.825Z,5.50
2022-12-28T05:34:58.268Z,5.60
2022-12-28T05:39:05.129Z,5.50
2022-12-28T05:43:10.595Z,5.50
2022-12-28T05:47:16.049Z,5.50
2022-12-28T05:51:26.963Z,5.50
2022-12-28T05:55:32.479Z,5.50
2022-12-28T05:59:37.931Z,5.50
2022-12-28T06:03:44.508Z,5.50
2022-12-28T06:07:53.333Z,5.50
2022-12-28T06:11:58.822Z,5.60
2022-12-28T06:16:13.788Z,5.60
2022-12-28T06:20:19.317Z,5.60
2022-12-28T06:24:24.888Z,5.60
2022-12-28T06:28:30.743Z,5.50
2022-12-28T06:32:36.204Z,5.60
2022-12-28T06:36:44.883Z,5.60
2022-12-28T06:45:15.976Z,5.60
2022-12-28T06:49:21.408Z,5.60
2022-12-28T06:53:32.104Z,5.60
2022-12-28T06:57:37.785Z,5.70
2022-12-28T07:01:46.123Z,5.70
2022-12-28T07:05:51.746Z,5.70
2022-12-28T07:09:57.212Z,5.70
2022-12-28T07:14:02.632Z,5.80
2022-12-28T07:18:08.216Z,5.80
2022-12-28T07:22:13.662Z,5.80
2022-12-28T07:26:26.627Z,5.80
2022-12-28T07:30:32.175Z,5.90
2022-12-28T07:34:37.717Z,5.90
2022-12-28T07:38:43.804Z,5.90
2022-12-28T07:42:49.296Z,5.90
2022-12-28T07:46:54.758Z,5.90
2022-12-28T07:51:08.066Z,6.00
2022-12-28T07:55:13.691Z,6.00
2022-12-28T07:59:19.097Z,6.00
2022-12-28T08:03:24.611Z,6.10
2022-12-28T08:07:30.109Z,6.10
2022-12-28T08:11:39.756Z,6.10
2022-12-28T08:15:55.036Z,6.10
2022-12-28T08:20:00.539Z,6.20
2022-12-28T08:24:07.496Z,6.20
2022-12-28T08:28:12.949Z,6.20
2022-12-28T08:32:18.397Z,6.20
2022-12-28T08:36:24.221Z,6.30
2022-12-28T08:40:30.130Z,6.40
2022-12-28T08:44:35.613Z,6.40
2022-12-28T08:48:41.109Z,6.50
2022-12-28T08:52:46.627Z,6.50
2022-12-28T08:56:53.419Z,6.50
2022-12-28T09:01:16.686Z,6.60
2022-12-28T09:05:22.448Z,6.60
2022-12-28T09:09:28.021Z,6.60
2022-12-28T09:13:34.765Z,6.70
2022-12-28T09:17:40.266Z,6.70
2022-12-28T09:21:49.063Z,6.80
2022-12-28T09:25:54.834Z,6.90
2022-12-28T09:30:00.346Z,6.90
2022-12-28T09:38:34.174Z,7.00
2022-12-28T09:42:43.023Z,7.10
2022-12-28T09:46:53.541Z,7.20
2022-12-28T09:50:59.949Z,7.20
2022-12-28T09:55:15.821Z,7.30
2022-12-28T09:59:23.995Z,7.40
2022-12-28T10:03:48.117Z,7.40
2022-12-28T10:07:55.104Z,7.50
2022-12-28T10:12:15.874Z,7.50
2022-12-28T10:16:23.571Z,7.60
2022-12-28T10:20:28.972Z,7.60
2022-12-28T10:24:35.321Z,7.70
2022-12-28T10:28:53.940Z,7.80
2022-12-28T10:33:03.338Z,7.90
2022-12-28T10:37:17.010Z,7.90
2022-12-28T10:41:34.305Z,8.00
2022-12-28T10:45:49.483Z,8.00
2022-12-28T10:50:18.891Z,8.10
2022-12-28T10:54:28.203Z,8.20
2022-12-28T10:58:36.323Z,8.30
2022-12-28T11:02:42.289Z,8.30
2022-12-28T11:07:01.874Z,8.30
2022-12-28T11:11:17.777Z,8.40
2022-12-28T11:15:31.276Z,8.50
2022-12-28T11:19:36.838Z,8.50
2022-12-28T11:23:44.265Z,8.50
2022-12-28T11:27:49.792Z,8.60
2022-12-28T11:32:34.544Z,8.60
2022-12-28T11:36:40.613Z,8.70
2022-12-28T11:40:52.640Z,8.70
2022-12-28T11:45:00.841Z,8.80
2022-12-28T11:49:32.582Z,8.80
2022-12-28T11:53:46.746Z,8.90
2022-12-28T11:57:53.455Z,8.90
2022-12-28T12:02:28.023Z,8.90
2022-12-28T12:06:42.491Z,9.00
2022-12-28T12:10:49.552Z,9.10
2022-12-28T12:15:02.483Z,9.10
2022-12-28T12:19:09.071Z,9.10
2022-12-28T12:23:36.417Z,9.10
2022-12-28T12:27:45.269Z,9.10
2022-12-28T12:32:04.135Z,9.20
2022-12-28T12:36:38.156Z,9.20
2022-12-28T12:40:58.995Z,9.20
2022-12-28T12:45:35.638Z,9.20
2022-12-28T12:49:54.366Z,9.30
2022-12-28T12:54:06.190Z,9.30
2022-12-28T12:58:24.770Z,9.30
2022-12-28T13:02:54.627Z,9.30
2022-12-28T13:07:06.315Z,9.40
2022-12-28T13:11:12.747Z,9.30
2022-12-28T13:15:18.752Z,9.30
2022-12-28T13:19:28.183Z,9.30
2022-12-28T13:23:43.373Z,9.40
2022-12-28T13:27:48.887Z,9.40
2022-12-28T13:31:54.653Z,9.40
2022-12-28T13:36:14.703Z,9.40
2022-12-28T13:40:20.739Z,9.50
2022-12-28T13:44:37.566Z,9.40
2022-12-28T13:48:49.865Z,9.50
2022-12-28T13:53:05.308Z,9.50
2022-12-28T13:57:45.307Z,9.50
2022-12-28T14:01:45.027Z,9.50
2022-12-28T14:06:00.063Z,9.50
2022-12-28T14:10:06.435Z,9.50
2022-12-28T14:14:12.722Z,9.60
2022-12-28T14:18:19.303Z,9.60
2022-12-28T14:22:37.181Z,9.60
2022-12-28T14:27:00.787Z,9.60
2022-12-28T14:31:08.600Z,9.60
2022-12-28T14:35:27.723Z,9.60
2022-12-28T14:39:45.665Z,9.60
2022-12-28T14:43:55.666Z,9.60
2022-12-28T14:48:01.363Z,9.60
2022-12-28T14:52:09.994Z,9.60
2022-12-28T14:56:20.156Z,9.60
2022-12-28T15:00:33.897Z,9.60
2022-12-28T15:04:41.932Z,9.60
2022-12-28T15:08:52.591Z,9.60
2022-12-28T15:12:58.178Z,9.60
2022-12-28T15:17:03.900Z,9.60
2022-12-28T15:21:09.401Z,9.60
2022-12-28T15:25:15.273Z,9.60
2022-12-28T15:29:39.394Z,9.60
2022-12-28T15:33:47.454Z,9.60
2022-12-28T15:37:52.989Z,9.60
2022-12-28T15:41:58.677Z,9.60
2022-12-28T15:46:04.336Z,9.60
2022-12-28T15:50:11.229Z,9.50
2022-12-28T15:54:16.692Z,9.60
2022-12-28T15:58:22.142Z,10.20
2022-12-28T16:02:27.824Z,9.90
2022-12-28T16:06:40.044Z,9.70
2022-12-28T16:10:49.353Z,9.60
2022-12-28T16:14:54.851Z,9.60
2022-12-28T16:19:02.411Z,9.50
2022-12-28T16:23:07.922Z,9.50
2022-12-28T16:27:13.433Z,9.50
2022-12-28T16:31:34.296Z,9.50
2022-12-28T16:35:39.859Z,9.50
2022-12-28T16:39:45.373Z,9.50
2022-12-28T16:43:51.313Z,9.50
2022-12-28T16:47:56.805Z,9.50
2022-12-28T16:52:02.311Z,9.50
2022-12-28T16:56:08.219Z,9.50
2022-12-28T17:00:14.113Z,9.50
2022-12-28T17:04:20.150Z,9.50
2022-12-28T17:08:26.217Z,9.50
2022-12-28T17:12:31.978Z,9.50
2022-12-28T17:16:38.328Z,9.50
2022-12-28T17:20:45.979Z,9.50
2022-12-28T17:24:51.773Z,9.50
2022-12-28T17:28:58.162Z,9.50
2022-12-28T17:33:03.653Z,9.50
2022-12-28T17:37:09.185Z,9.50
2022-12-28T17:41:21.956Z,9.50
2022-12-28T17:45:27.523Z,9.50
2022-12-28T17:49:33.076Z,9.50
2022-12-28T17:53:40.430Z,9.50
2022-12-28T17:57:45.914Z,9.50
2022-12-28T18:01:51.911Z,9.50
2022-12-28T18:05:57.650Z,9.50
2022-12-28T18:10:03.414Z,9.50
2022-12-28T18:14:12.887Z,9.50
2022-12-28T18:18:19.906Z,9.40
2022-12-28T18:22:25.446Z,9.40
2022-12-28T18:26:30.917Z,9.40
2022-12-28T18:30:36.473Z,9.30
2022-12-28T18:34:41.996Z,9.30
2022-12-28T18:38:48.201Z,9.30
2022-12-28T18:42:53.681Z,9.30
2022-12-28T18:46:59.212Z,9.30
2022-12-28T18:51:17.233Z,9.30
2022-12-28T18:55:22.725Z,9.20
2022-12-28T18:59:28.578Z,9.20
2022-12-28T19:03:34.820Z,9.20
2022-12-28T19:07:44.493Z,9.20
2022-12-28T19:11:52.977Z,9.20
2022-12-28T19:15:58.455Z,9.20
2022-12-28T19:20:04.695Z,9.20
2022-12-28T19:24:17.489Z,9.10
2022-12-28T19:28:22.962Z,9.10
2022-12-28T19:32:28.514Z,9.10
2022-12-28T19:36:34.020Z,9.10
2022-12-28T19:40:39.635Z,9.00
2022-12-28T19:44:45.220Z,9.10
2022-12-28T19:48:53.780Z,9.10
2022-12-28T19:52:59.279Z,9.00
2022-12-28T19:57:04.835Z,9.00
2022-12-28T20:01:20.643Z,9.00
2022-12-28T20:05:26.238Z,9.00
2022-12-28T20:09:31.671Z,9.00
2022-12-28T20:13:37.191Z,8.90
2022-12-28T20:17:47.297Z,9.00
2022-12-28T20:21:52.781Z,8.90
2022-12-28T20:25:58.571Z,8.90
2022-12-28T20:30:04.967Z,8.90
2022-12-28T20:34:10.974Z,8.90
2022-12-28T20:38:16.430Z,8.90
2022-12-28T20:42:40.216Z,8.90
2022-12-28T20:46:46.059Z,8.90
2022-12-28T20:51:00.663Z,8.90
2022-12-28T20:55:08.186Z,8.90
2022-12-28T20:59:14.744Z,8.80
2022-12-28T21:03:20.200Z,8.80
2022-12-28T21:07:26.112Z,8.80
2022-12-28T21:11:33.202Z,8.80
2022-12-28T21:15:42.954Z,8.70
2022-12-28T21:19:48.408Z,8.70
2022-12-28T21:23:53.907Z,8.70
2022-12-28T21:27:59.410Z,8.70
2022-12-28T21:32:05.246Z,8.70
2022-12-28T21:36:19.089Z,8.70
2022-12-28T21:40:25.063Z,8.70
2022-12-28T21:44:30.605Z,8.70
2022-12-28T21:48:37.992Z,8.70
2022-12-28T21:52:43.865Z,8.70
2022-12-28T21:56:53.010Z,8.60
2022-12-28T22:01:18.242Z,8.60
2022-12-28T22:05:42.416Z,8.60
2022-12-28T22:10:06.768Z,8.60
2022-12-28T22:14:12.464Z,8.60
2022-12-28T22:22:51.072Z,8.50
2022-12-28T22:26:56.622Z,8.60
2022-12-28T22:31:08.781Z,8.60
2022-12-28T22:35:14.778Z,8.60
2022-12-28T22:39:20.745Z,8.60
2022-12-28T22:43:26.395Z,8.60
2022-12-28T22:47:32.103Z,8.60
2022-12-28T22:51:37.746Z,8.50
2022-12-28T22:55:43.221Z,8.60
2022-12-28T22:59:48.808Z,8.60
2022-12-28T23:03:54.285Z,8.50
2022-12-28T23:07:59.879Z,8.50
2022-12-28T23:12:05.832Z,8.50
2022-12-28T23:16:11.338Z,8.60
2022-12-28T23:20:36.164Z,8.60
2022-12-28T23:25:00.884Z,8.60
2022-12-28T23:29:06.332Z,8.60
2022-12-28T23:33:12.031Z,8.50
2022-12-28T23:37:18.649Z,8.60
2022-12-28T23:41:59.328Z,8.50
2022-12-28T23:46:05.373Z,8.60
2022-12-28T23:50:12.668Z,8.60
2022-12-28T23:54:19.720Z,8.60
2022-12-28T23:58:25.160Z,8.60
